createdAt,value
2018-08-11T00:00:46.465Z,100877.27
2018-08-11T00:03:15.461Z,100880.01
2018-08-11T00:05:43.710Z,100871.58
2018-08-11T00:08:11.970Z,100878.98
2018-08-11T00:10:40.132Z,100880.64
2018-08-11T00:13:09.120Z,100867.25
2018-08-11T00:15:37.252Z,100872.23
2018-08-11T00:18:06.144Z,100878.56
2018-08-11T00:20:34.224Z,100867.86
2018-08-11T00:23:03.562Z,100865.16
2018-08-11T00:25:31.787Z,100855.81
2018-08-11T00:28:00.824Z,100852.84
2018-08-11T00:30:28.980Z,100854.77
2018-08-11T00:32:57.125Z,100851.22
2018-08-11T00:35:25.342Z,100844.63
2018-08-11T00:37:53.600Z,100851.44
2018-08-11T00:40:21.926Z,100845.97
2018-08-11T00:42:50.552Z,100852.48
2018-08-11T00:45:19.190Z,100855.74
2018-08-11T00:47:47.338Z,100859.53
2018-08-11T00:50:22.369Z,100860.87
2018-08-11T00:52:51.478Z,100853.42
2018-08-11T00:55:19.703Z,100859.02
2018-08-11T00:57:47.953Z,100852.68
2018-08-11T01:00:17.829Z,100843.67
2018-08-11T01:02:46.071Z,100837.70
2018-08-11T01:05:17.076Z,100844.50
2018-08-11T01:07:46.382Z,100833.77
2018-08-11T01:10:15.160Z,100838.67
2018-08-11T01:12:44.209Z,100833.17
2018-08-11T01:15:15.526Z,100828.47
2018-08-11T01:17:44.341Z,100827.87
2018-08-11T01:20:13.043Z,100830.33
2018-08-11T01:22:42.074Z,100829.20
2018-08-11T01:25:11.169Z,100820.69
2018-08-11T01:27:40.413Z,100823.92
2018-08-11T01:30:12.786Z,100826.65
2018-08-11T01:32:41.015Z,100828.59
2018-08-11T01:35:09.936Z,100830.48
2018-08-11T01:37:39.088Z,100826.13
2018-08-11T01:40:09.014Z,100826.95
2018-08-11T01:42:37.222Z,100825.59
2018-08-11T01:45:06.532Z,100823.61
2018-08-11T01:47:34.770Z,100822.25
2018-08-11T01:50:03.146Z,100822.25
2018-08-11T01:52:31.310Z,100812.68
2018-08-11T01:54:59.472Z,100806.37
2018-08-11T01:57:27.648Z,100805.81
2018-08-11T01:59:55.806Z,100811.31
2018-08-11T02:02:23.942Z,100808.09
2018-08-11T02:04:52.100Z,100803.64
2018-08-11T02:07:20.380Z,100817.23
2018-08-11T02:09:48.596Z,100809.27
2018-08-11T02:12:16.828Z,100804.25
2018-08-11T02:14:45.016Z,100793.55
2018-08-11T02:17:13.168Z,100797.98
2018-08-11T02:19:41.338Z,100798.75
2018-08-11T02:22:09.532Z,100792.52
2018-08-11T02:24:37.801Z,100786.98
2018-08-11T02:27:06.148Z,100788.65
2018-08-11T02:29:34.312Z,100789.08
2018-08-11T02:32:02.492Z,100781.11
2018-08-11T02:34:30.682Z,100779.24
2018-08-11T02:36:58.848Z,100785.20
2018-08-11T02:39:27.004Z,100784.94
2018-08-11T02:41:55.327Z,100786.67
2018-08-11T02:44:23.497Z,100782.84
2018-08-11T02:46:51.733Z,100781.33
2018-08-11T02:49:20.053Z,100777.95
2018-08-11T02:51:48.263Z,100769.23
2018-08-11T02:54:16.340Z,100773.58
2018-08-11T02:56:44.488Z,100765.34
2018-08-11T02:59:12.573Z,100759.58
2018-08-11T03:01:40.761Z,100765.84
2018-08-11T03:04:08.885Z,100769.93
2018-08-11T03:06:37.079Z,100767.42
2018-08-11T03:09:07.527Z,100768.61
2018-08-11T03:11:35.721Z,100765.48
2018-08-11T03:14:04.456Z,100761.95
2018-08-11T03:16:32.737Z,100758.70
2018-08-11T03:19:01.623Z,100756.77
2018-08-11T03:21:29.773Z,100755.87
2018-08-11T03:23:57.875Z,100757.73
2018-08-11T03:26:26.074Z,100756.05
2018-08-11T03:28:54.387Z,100757.10
2018-08-11T03:31:22.509Z,100756.57
2018-08-11T03:33:50.595Z,100767.85
2018-08-11T03:36:18.790Z,100765.52
2018-08-11T03:38:46.907Z,100764.47
2018-08-11T03:41:15.066Z,100766.23
2018-08-11T03:43:43.205Z,100772.58
2018-08-11T03:46:11.639Z,100770.15
2018-08-11T03:48:39.810Z,100765.97
2018-08-11T03:51:08.043Z,100768.39
2018-08-11T03:53:36.151Z,100779.67
2018-08-11T03:56:04.301Z,100789.14
2018-08-11T03:58:32.369Z,100788.42
2018-08-11T04:01:00.575Z,100788.50
2018-08-11T04:03:28.697Z,100782.02
2018-08-11T04:05:56.881Z,100771.91
2018-08-11T04:08:25.249Z,100768.51
2018-08-11T04:10:53.413Z,100757.95
2018-08-11T04:13:21.521Z,100751.47
2018-08-11T04:15:49.756Z,100756.09
2018-08-11T04:18:17.940Z,100763.61
2018-08-11T04:20:46.056Z,100771.08
2018-08-11T04:23:14.287Z,100774.16
2018-08-11T04:25:42.406Z,100771.72
2018-08-11T04:28:10.740Z,100769.02
2018-08-11T04:30:38.882Z,100769.22
2018-08-11T04:33:07.054Z,100770.62
2018-08-11T04:35:35.208Z,100763.72
2018-08-11T04:38:03.415Z,100761.05
2018-08-11T04:40:31.869Z,100757.31
2018-08-11T04:43:00.284Z,100757.98
2018-08-11T04:45:28.429Z,100764.52
2018-08-11T04:47:56.615Z,100769.72
2018-08-11T04:50:24.733Z,100776.35
2018-08-11T04:52:52.896Z,100772.48
2018-08-11T04:55:21.055Z,100768.39
2018-08-11T04:57:49.310Z,100764.98
2018-08-11T05:00:17.470Z,100760.38
2018-08-11T05:02:45.560Z,100756.85
2018-08-11T05:05:13.763Z,100755.11
2018-08-11T05:07:41.870Z,100753.17
2018-08-11T05:10:10.025Z,100756.21
2018-08-11T05:12:38.157Z,100756.17
2018-08-11T05:15:07.877Z,100764.98
2018-08-11T05:17:36.021Z,100769.75
2018-08-11T05:20:04.531Z,100779.45
2018-08-11T05:22:32.737Z,100791.05
2018-08-11T05:25:00.863Z,100782.07
2018-08-11T05:27:29.073Z,100790.97
2018-08-11T05:29:57.281Z,100788.46
2018-08-11T05:32:25.897Z,100791.20
2018-08-11T05:34:54.938Z,100793.50
2018-08-11T05:37:23.059Z,100785.00
2018-08-11T05:39:52.207Z,100777.88
2018-08-11T05:42:20.516Z,100780.34
2018-08-11T05:44:48.729Z,100785.82
2018-08-11T05:47:17.087Z,100788.83
2018-08-11T05:49:45.431Z,100788.56
2018-08-11T05:52:13.613Z,100783.14
2018-08-11T05:54:41.965Z,100781.05
2018-08-11T05:57:10.048Z,100787.16
2018-08-11T05:59:38.358Z,100787.09
2018-08-11T06:02:07.218Z,100797.06
2018-08-11T06:04:35.392Z,100788.33
2018-08-11T06:07:04.008Z,100790.30
2018-08-11T06:09:32.116Z,100786.52
2018-08-11T06:12:00.407Z,100775.98
2018-08-11T06:14:28.652Z,100782.34
2018-08-11T06:16:57.051Z,100773.35
2018-08-11T06:19:25.508Z,100776.33
2018-08-11T06:21:53.904Z,100771.51
2018-08-11T06:24:22.102Z,100773.50
2018-08-11T06:26:50.419Z,100768.31
2018-08-11T06:29:18.590Z,100777.26
2018-08-11T06:31:46.864Z,100774.88
2018-08-11T06:34:14.982Z,100778.80
2018-08-11T06:36:43.122Z,100776.61
2018-08-11T06:39:13.215Z,100772.05
2018-08-11T06:41:42.264Z,100773.11
2018-08-11T06:44:11.111Z,100777.36
2018-08-11T06:46:39.387Z,100777.03
2018-08-11T06:49:07.626Z,100771.97
2018-08-11T06:51:36.399Z,100774.45
2018-08-11T06:54:04.739Z,100782.83
2018-08-11T06:56:32.945Z,100784.02
2018-08-11T06:59:01.175Z,100782.95
2018-08-11T07:01:29.295Z,100777.56
2018-08-11T07:03:57.497Z,100777.15
2018-08-11T07:06:25.695Z,100779.90
2018-08-11T07:08:53.836Z,100788.13
2018-08-11T07:11:22.101Z,100779.35
2018-08-11T07:13:50.282Z,100779.67
2018-08-11T07:16:18.833Z,100775.25
2018-08-11T07:18:46.949Z,100773.45
2018-08-11T07:21:15.115Z,100776.16
2018-08-11T07:23:43.205Z,100773.00
2018-08-11T07:26:11.429Z,100776.95
2018-08-11T07:28:39.713Z,100774.75
2018-08-11T07:31:07.956Z,100769.36
2018-08-11T07:33:36.230Z,100777.32
2018-08-11T07:36:04.537Z,100778.66
2018-08-11T07:38:33.736Z,100774.12
2018-08-11T07:41:02.039Z,100775.38
2018-08-11T07:43:30.466Z,100779.09
2018-08-11T07:45:58.827Z,100772.77
2018-08-11T07:48:27.036Z,100783.08
2018-08-11T07:50:55.275Z,100779.17
2018-08-11T07:53:23.524Z,100772.28
2018-08-11T07:55:52.004Z,100768.05
2018-08-11T07:58:20.238Z,100778.97
2018-08-11T08:00:48.454Z,100766.39
2018-08-11T08:03:16.918Z,100785.49
2018-08-11T08:05:45.052Z,100778.17
2018-08-11T08:08:13.187Z,100774.16
2018-08-11T08:10:41.347Z,100775.11
2018-08-11T08:13:09.619Z,100778.50
2018-08-11T08:15:38.198Z,100769.27
2018-08-11T08:18:07.157Z,100772.30
2018-08-11T08:20:35.301Z,100774.15
2018-08-11T08:23:03.429Z,100770.66
2018-08-11T08:25:31.613Z,100774.80
2018-08-11T08:28:00.645Z,100774.25
2018-08-11T08:30:28.831Z,100777.54
2018-08-11T08:32:57.079Z,100773.55
2018-08-11T08:35:25.270Z,100784.30
2018-08-11T08:37:53.571Z,100772.59
2018-08-11T08:40:21.797Z,100762.71
2018-08-11T08:42:50.057Z,100772.44
2018-08-11T08:45:18.263Z,100769.19
2018-08-11T08:47:46.507Z,100781.03
2018-08-11T08:50:14.628Z,100785.16
2018-08-11T08:52:43.282Z,100784.84
2018-08-11T08:55:11.647Z,100780.02
2018-08-11T08:57:39.852Z,100783.06
2018-08-11T09:00:08.012Z,100789.57
2018-08-11T09:02:36.352Z,100793.73
2018-08-11T09:05:04.600Z,100799.78
2018-08-11T09:07:32.864Z,100795.48
2018-08-11T09:10:01.111Z,100791.72
2018-08-11T09:12:29.342Z,100791.66
2018-08-11T09:14:57.784Z,100798.27
2018-08-11T09:17:26.653Z,100802.98
2018-08-11T09:19:54.835Z,100799.23
2018-08-11T09:22:22.976Z,100801.75
2018-08-11T09:24:51.231Z,100801.09
2018-08-11T09:27:19.420Z,100799.52
2018-08-11T09:29:47.687Z,100796.03
2018-08-11T09:32:15.845Z,100799.20
2018-08-11T09:34:44.084Z,100799.14
2018-08-11T09:37:12.364Z,100796.59
2018-08-11T09:39:41.032Z,100798.87
2018-08-11T09:42:09.324Z,100813.61
2018-08-11T09:44:37.580Z,100816.30
2018-08-11T09:47:05.821Z,100812.02
2018-08-11T09:49:34.090Z,100818.34
2018-08-11T09:52:02.274Z,100801.48
2018-08-11T09:54:30.502Z,100799.29
2018-08-11T09:56:58.772Z,100802.42
2018-08-11T09:59:27.858Z,100795.12
2018-08-11T10:02:01.652Z,100800.13
2018-08-11T10:04:29.946Z,100796.86
2018-08-11T10:06:58.208Z,100796.93
2018-08-11T10:09:26.490Z,100781.70
2018-08-11T10:11:54.756Z,100780.34
2018-08-11T10:14:22.962Z,100777.26
2018-08-11T10:16:51.132Z,100793.91
2018-08-11T10:19:19.318Z,100796.13
2018-08-11T10:21:47.456Z,100789.09
2018-08-11T10:24:15.620Z,100787.95
2018-08-11T10:26:44.134Z,100791.08
2018-08-11T10:29:12.226Z,100794.63
2018-08-11T10:31:40.442Z,100778.30
2018-08-11T10:34:08.713Z,100776.91
2018-08-11T10:36:36.948Z,100774.98
2018-08-11T10:39:09.809Z,100778.82
2018-08-11T10:41:38.539Z,100783.80
2018-08-11T10:44:07.014Z,100783.78
2018-08-11T10:46:35.470Z,100786.88
2018-08-11T10:49:03.976Z,100787.48
2018-08-11T10:51:32.170Z,100791.16
2018-08-11T10:54:00.585Z,100788.84
2018-08-11T10:56:28.798Z,100796.22
2018-08-11T10:58:57.080Z,100775.74
2018-08-11T11:01:25.378Z,100788.27
2018-08-11T11:03:53.779Z,100785.91
2018-08-11T11:06:22.033Z,100784.22
2018-08-11T11:08:50.251Z,100775.52
2018-08-11T11:11:18.492Z,100780.81
2018-08-11T11:13:46.684Z,100783.52
2018-08-11T11:16:14.908Z,100786.72
2018-08-11T11:18:43.164Z,100778.14
2018-08-11T11:21:11.480Z,100765.84
2018-08-11T11:23:39.640Z,100767.77
2018-08-11T11:26:07.884Z,100763.24
2018-08-11T11:28:35.997Z,100778.63
2018-08-11T11:31:04.390Z,100777.62
2018-08-11T11:33:32.624Z,100772.03
2018-08-11T11:36:00.886Z,100759.42
2018-08-11T11:38:29.245Z,100772.80
2018-08-11T11:40:57.836Z,100768.86
2018-08-11T11:43:26.760Z,100766.30
2018-08-11T11:45:55.273Z,100770.81
2018-08-11T11:48:23.496Z,100761.52
2018-08-11T11:50:51.740Z,100761.15
2018-08-11T11:53:19.968Z,100754.16
2018-08-11T11:55:48.129Z,100746.98
2018-08-11T11:58:17.076Z,100749.39
2018-08-11T12:00:45.359Z,100751.97
2018-08-11T12:03:13.746Z,100746.30
2018-08-11T12:05:42.137Z,100743.69
2018-08-11T12:08:10.593Z,100735.14
2018-08-11T12:10:38.773Z,100734.19
2018-08-11T12:13:07.241Z,100739.20
2018-08-11T12:15:35.474Z,100738.87
2018-08-11T12:18:04.648Z,100722.41
2018-08-11T12:20:32.858Z,100722.03
2018-08-11T12:23:01.097Z,100747.67
2018-08-11T12:25:29.914Z,100736.51
2018-08-11T12:28:00.015Z,100739.05
2018-08-11T12:30:28.178Z,100733.13
2018-08-11T12:32:56.350Z,100731.30
2018-08-11T12:35:24.528Z,100728.87
2018-08-11T12:37:52.800Z,100727.51
2018-08-11T12:40:21.116Z,100728.66
2018-08-11T12:42:49.337Z,100738.13
2018-08-11T12:45:17.593Z,100735.56
2018-08-11T12:47:45.887Z,100730.42
2018-08-11T12:50:14.091Z,100727.48
2018-08-11T12:52:42.227Z,100741.13
2018-08-11T12:55:10.377Z,100735.41
2018-08-11T12:57:38.591Z,100733.92
2018-08-11T13:00:08.405Z,100722.61
2018-08-11T13:02:36.871Z,100732.22
2018-08-11T13:05:05.089Z,100732.14
2018-08-11T13:07:33.521Z,100727.98
2018-08-11T13:10:01.628Z,100719.95
2018-08-11T13:12:30.291Z,100724.77
2018-08-11T13:14:58.583Z,100720.11
2018-08-11T13:17:26.732Z,100726.02
2018-08-11T13:19:54.989Z,100721.34
2018-08-11T13:22:23.234Z,100700.08
2018-08-11T13:24:51.444Z,100717.83
2018-08-11T13:27:19.652Z,100713.80
2018-08-11T13:29:47.864Z,100707.70
2018-08-11T13:32:16.094Z,100708.13
2018-08-11T13:34:44.342Z,100700.99
2018-08-11T13:37:12.545Z,100701.80
2018-08-11T13:39:47.523Z,100703.92
2018-08-11T13:42:15.751Z,100694.02
2018-08-11T13:44:43.945Z,100703.95
2018-08-11T13:47:12.076Z,100700.73
2018-08-11T13:49:40.380Z,100698.15
2018-08-11T13:52:08.537Z,100702.54
2018-08-11T13:54:36.753Z,100710.64
2018-08-11T13:57:05.439Z,100707.80
2018-08-11T13:59:33.782Z,100697.22
2018-08-11T14:02:02.234Z,100703.03
2018-08-11T14:04:30.638Z,100709.76
2018-08-11T14:06:58.886Z,100707.43
2018-08-11T14:09:27.170Z,100703.77
2018-08-11T14:11:55.432Z,100697.60
2018-08-11T14:14:23.653Z,100710.76
2018-08-11T14:16:51.824Z,100699.77
2018-08-11T14:19:20.059Z,100700.15
2018-08-11T14:21:48.321Z,100714.84
2018-08-11T14:24:16.544Z,100711.47
2018-08-11T14:26:44.723Z,100709.91
2018-08-11T14:29:13.029Z,100709.10
2018-08-11T14:31:41.378Z,100706.19
2018-08-11T14:34:09.596Z,100703.69
2018-08-11T14:36:37.840Z,100705.14
2018-08-11T14:39:08.316Z,100699.24
2018-08-11T14:41:37.041Z,100699.47
2018-08-11T14:44:06.497Z,100697.21
2018-08-11T14:46:34.786Z,100707.36
2018-08-11T14:49:02.951Z,100702.16
2018-08-11T14:51:32.081Z,100702.45
2018-08-11T14:54:00.517Z,100699.38
2018-08-11T14:56:28.749Z,100697.61
2018-08-11T14:58:56.919Z,100700.03
2018-08-11T15:01:25.181Z,100691.37
2018-08-11T15:03:53.371Z,100692.59
2018-08-11T15:06:22.128Z,100699.27
2018-08-11T15:08:50.469Z,100697.48
2018-08-11T15:11:18.827Z,100683.91
2018-08-11T15:13:47.052Z,100691.21
2018-08-11T15:16:16.127Z,100694.58
2018-08-11T15:18:44.295Z,100682.11
2018-08-11T15:21:12.462Z,100682.00
2018-08-11T15:23:40.706Z,100679.23
2018-08-11T15:26:09.068Z,100679.84
2018-08-11T15:28:37.263Z,100679.84
2018-08-11T15:31:05.430Z,100682.64
2018-08-11T15:33:33.831Z,100677.89
2018-08-11T15:36:02.064Z,100675.62
2018-08-11T15:38:30.486Z,100690.13
2018-08-11T15:40:58.689Z,100680.28
2018-08-11T15:43:26.999Z,100675.56
2018-08-11T15:45:56.177Z,100681.91
2018-08-11T15:48:24.356Z,100677.10
2018-08-11T15:50:53.744Z,100678.48
2018-08-11T15:53:21.879Z,100684.59
2018-08-11T15:55:50.260Z,100679.52
2018-08-11T15:58:18.390Z,100684.87
2018-08-11T16:00:46.682Z,100680.25
2018-08-11T16:03:14.982Z,100682.47
2018-08-11T16:05:43.099Z,100681.47
2018-08-11T16:08:11.485Z,100683.39
2018-08-11T16:10:40.343Z,100682.94
2018-08-11T16:13:08.666Z,100680.09
2018-08-11T16:15:36.909Z,100685.22
2018-08-11T16:18:05.251Z,100690.75
2018-08-11T16:20:33.408Z,100691.06
2018-08-11T16:23:01.619Z,100692.30
2018-08-11T16:25:30.369Z,100694.78
2018-08-11T16:27:58.804Z,100694.94
2018-08-11T16:30:27.553Z,100695.72
2018-08-11T16:32:55.792Z,100693.58
2018-08-11T16:35:23.967Z,100700.52
2018-08-11T16:37:52.568Z,100694.84
2018-08-11T16:40:20.883Z,100697.13
2018-08-11T16:42:49.170Z,100702.38
2018-08-11T16:45:17.460Z,100701.50
2018-08-11T16:47:46.031Z,100697.04
2018-08-11T16:50:14.235Z,100689.98
2018-08-11T16:52:42.438Z,100691.72
2018-08-11T16:55:10.539Z,100696.28
2018-08-11T16:57:38.723Z,100690.43
2018-08-11T17:00:10.463Z,100696.09
2018-08-11T17:02:39.205Z,100714.13
2018-08-11T17:05:07.370Z,100705.82
2018-08-11T17:07:35.595Z,100716.31
2018-08-11T17:10:05.880Z,100712.62
2018-08-11T17:12:34.073Z,100709.44
2018-08-11T17:15:02.515Z,100708.99
2018-08-11T17:17:31.087Z,100706.52
2018-08-11T17:19:59.263Z,100710.48
2018-08-11T17:22:27.443Z,100713.70
2018-08-11T17:24:55.556Z,100708.47
2018-08-11T17:27:24.654Z,100716.75
2018-08-11T17:29:52.931Z,100709.38
2018-08-11T17:32:21.229Z,100715.55
2018-08-11T17:34:50.342Z,100720.42
2018-08-11T17:37:18.824Z,100727.71
2018-08-11T17:39:47.140Z,100726.70
2018-08-11T17:42:15.832Z,100729.73
2018-08-11T17:44:44.308Z,100736.45
2018-08-11T17:47:12.572Z,100735.45
2018-08-11T17:49:41.068Z,100737.55
2018-08-11T17:52:10.113Z,100738.20
2018-08-11T17:54:38.356Z,100742.09
2018-08-11T17:57:06.569Z,100740.84
2018-08-11T17:59:34.860Z,100739.66
2018-08-11T18:02:03.184Z,100736.74
2018-08-11T18:04:31.405Z,100750.32
2018-08-11T18:06:59.670Z,100746.06
2018-08-11T18:09:27.829Z,100745.00
2018-08-11T18:11:56.167Z,100748.09
2018-08-11T18:14:24.332Z,100750.70
2018-08-11T18:16:52.481Z,100755.75
2018-08-11T18:19:20.593Z,100755.25
2018-08-11T18:21:49.827Z,100751.78
2018-08-11T18:24:18.115Z,100760.90
2018-08-11T18:26:46.343Z,100758.16
2018-08-11T18:29:14.623Z,100770.33
2018-08-11T18:31:42.751Z,100774.48
2018-08-11T18:34:10.935Z,100770.42
2018-08-11T18:36:39.111Z,100773.73
2018-08-11T18:39:11.901Z,100782.00
2018-08-11T18:41:41.203Z,100784.48
2018-08-11T18:44:09.483Z,100789.47
2018-08-11T18:46:37.706Z,100776.30
2018-08-11T18:49:06.365Z,100788.44
2018-08-11T18:51:34.837Z,100793.13
2018-08-11T18:54:03.075Z,100797.83
2018-08-11T18:56:31.688Z,100798.36
2018-08-11T18:59:00.056Z,100804.69
2018-08-11T19:01:28.283Z,100805.55
2018-08-11T19:03:56.623Z,100808.53
2018-08-11T19:06:25.599Z,100809.08
2018-08-11T19:08:53.826Z,100818.98
2018-08-11T19:11:22.031Z,100817.89
2018-08-11T19:13:50.199Z,100815.69
2018-08-11T19:16:18.568Z,100822.81
2018-08-11T19:18:46.820Z,100822.53
2018-08-11T19:21:15.027Z,100823.91
2018-08-11T19:23:43.270Z,100829.95
2018-08-11T19:26:11.848Z,100826.91
2018-08-11T19:28:40.130Z,100833.78
2018-08-11T19:31:08.387Z,100836.26
2018-08-11T19:33:36.627Z,100837.36
2018-08-11T19:36:04.985Z,100843.66
2018-08-11T19:38:33.272Z,100842.57
2018-08-11T19:41:01.640Z,100841.75
2018-08-11T19:43:29.858Z,100846.95
2018-08-11T19:45:58.287Z,100850.53
2018-08-11T19:48:27.209Z,100847.23
2018-08-11T19:50:55.557Z,100847.75
2018-08-11T19:53:23.832Z,100849.39
2018-08-11T19:55:52.081Z,100844.73
2018-08-11T19:58:20.702Z,100847.74
2018-08-11T20:00:49.064Z,100856.23
2018-08-11T20:03:17.270Z,100851.04
2018-08-11T20:05:45.583Z,100853.50
2018-08-11T20:08:13.774Z,100850.20
2018-08-11T20:10:42.368Z,100860.02
2018-08-11T20:13:11.672Z,100857.27
2018-08-11T20:15:40.152Z,100864.36
2018-08-11T20:18:08.368Z,100872.27
2018-08-11T20:20:36.660Z,100867.91
2018-08-11T20:23:04.935Z,100867.64
2018-08-11T20:25:33.351Z,100864.08
2018-08-11T20:28:02.525Z,100863.75
2018-08-11T20:30:30.829Z,100862.92
2018-08-11T20:32:59.122Z,100863.71
2018-08-11T20:35:27.319Z,100860.41
2018-08-11T20:37:56.185Z,100872.70
2018-08-11T20:40:24.555Z,100872.66
2018-08-11T20:42:52.837Z,100873.41
2018-08-11T20:45:21.137Z,100872.05
2018-08-11T20:47:50.329Z,100875.84
2018-08-11T20:50:18.710Z,100867.37
2018-08-11T20:52:46.884Z,100866.45
2018-08-11T20:55:15.210Z,100873.83
2018-08-11T20:57:43.385Z,100877.09
2018-08-11T21:00:12.854Z,100879.80
2018-08-11T21:02:41.327Z,100884.20
2018-08-11T21:05:12.278Z,100887.70
2018-08-11T21:07:40.479Z,100894.55
2018-08-11T21:10:12.468Z,100898.53
2018-08-11T21:12:41.396Z,100894.09
2018-08-11T21:15:10.781Z,100896.17
2018-08-11T21:17:39.097Z,100896.97
2018-08-11T21:20:11.759Z,100898.20
2018-08-11T21:22:40.835Z,100898.73
2018-08-11T21:25:10.803Z,100893.21
2018-08-11T21:27:39.232Z,100893.66
2018-08-11T21:30:12.164Z,100898.82
2018-08-11T21:32:40.587Z,100898.76
2018-08-11T21:35:08.919Z,100895.15
2018-08-11T21:37:37.108Z,100895.14
2018-08-11T21:40:09.389Z,100897.83
2018-08-11T21:42:37.631Z,100901.91
2018-08-11T21:45:06.049Z,100895.84
2018-08-11T21:47:34.340Z,100893.31
2018-08-11T21:50:02.731Z,100894.05
2018-08-11T21:52:31.155Z,100899.64
2018-08-11T21:54:59.291Z,100894.91
2018-08-11T21:57:27.549Z,100892.95
2018-08-11T21:59:55.749Z,100890.28
2018-08-11T22:02:23.883Z,100889.89
2018-08-11T22:04:52.034Z,100886.52
2018-08-11T22:07:20.185Z,100890.81
2018-08-11T22:09:48.346Z,100894.91
2018-08-11T22:12:16.633Z,100889.25
2018-08-11T22:14:44.821Z,100891.98
2018-08-11T22:17:13.071Z,100900.11
2018-08-11T22:19:41.625Z,100902.42
2018-08-11T22:22:09.804Z,100898.00
2018-08-11T22:24:37.949Z,100901.58
2018-08-11T22:27:06.346Z,100894.87
2018-08-11T22:29:34.572Z,100894.87
2018-08-11T22:32:02.764Z,100899.82
2018-08-11T22:34:31.006Z,100897.53
2018-08-11T22:36:59.177Z,100897.98
2018-08-11T22:39:27.319Z,100896.93
2018-08-11T22:41:55.585Z,100893.05
2018-08-11T22:44:23.713Z,100903.17
2018-08-11T22:46:51.993Z,100899.53
2018-08-11T22:49:20.876Z,100902.84
2018-08-11T22:51:49.069Z,100903.82
2018-08-11T22:54:17.193Z,100904.89
2018-08-11T22:56:45.421Z,100905.11
2018-08-11T22:59:13.639Z,100897.11
2018-08-11T23:01:41.943Z,100892.44
2018-08-11T23:04:10.354Z,100897.28
2018-08-11T23:06:38.533Z,100901.70
2018-08-11T23:09:07.406Z,100894.52
2018-08-11T23:11:35.610Z,100893.83
2018-08-11T23:14:03.924Z,100899.53
2018-08-11T23:16:32.042Z,100894.13
2018-08-11T23:19:00.216Z,100897.46
2018-08-11T23:21:28.444Z,100888.55
2018-08-11T23:23:56.731Z,100894.69
2018-08-11T23:26:24.961Z,100890.27
2018-08-11T23:28:53.180Z,100894.33
2018-08-11T23:31:21.364Z,100897.95
2018-08-11T23:33:49.668Z,100892.06
2018-08-11T23:36:17.924Z,100888.59
2018-08-11T23:38:46.106Z,100892.77
2018-08-11T23:41:14.924Z,100887.31
2018-08-11T23:43:44.165Z,100887.89
2018-08-11T23:46:12.457Z,100881.84
2018-08-11T23:48:40.727Z,100882.47
2018-08-11T23:51:09.000Z,100882.91
2018-08-11T23:53:37.242Z,100886.92
2018-08-11T23:56:05.640Z,100883.08
2018-08-11T23:58:33.809Z,100882.21
